Main page
METAR-TAF:

METAR-TAF

Airports :

Vancouver, British Columbia, Canada

Vancouver International Airport

latitude: 49-11N, longitude: 123-10W, elevation: 3 m

Current weather observation

The report was made 52 minutes ago, at 15:00 UTC
Wind 10 kt from the West/Northwest
Temperature 12°C
Humidity 82%
Pressure 1021 hPa
Visibility: 48.3 km
Few clouds at a height of 25000 ft

METAR: CYVR 251500Z 29010KT 30SM FEW250 12/09 A3015 RMK CS1 SLP211

Time: 08:52 (15:52 UTC)

Forecast

The report was made 1 hour and 14 minutes ago, at 14:38 UTC
Forecast valid from 25 at 15 UTC to 26 at 18 UTC
Wind 10 kt from the West/Northwest
Visibility: 10 km
Clear sky
Becoming
from 26 at 06 UTC to 26 at 08 UTC
Wind 6 kt from the West/Northwest
From 26 at 1600 UTC
Wind 8 kt from the West
Visibility: 10 km
Clear sky

TAF: CYVR 251438Z 2515/2618 30010KT P6SM SKC BECMG 2606/2608 30006KT FM261600 28008KT P6SM SKC RMK NXT FCST BY 251800Z

Weather observations and forecasts of more than 4000 airports (METAR and TAF reports).

The available stations are represented by yellow and red dots on the map.

Hover mouse over dot to see the name of the station.

Then click to see weather observations and forecasts.

To change the map : click on the green buttons with a black cross to zoom in, on the green button with a dash to zoom out, or on the green arrows for adjacent maps.


METAR-TAF: